createdAt,value
2023-01-29T00:00:12.319Z,100.00
2023-01-29T00:02:38.799Z,100.00
2023-01-29T00:05:25.443Z,100.00
2023-01-29T00:07:52.726Z,100.00
2023-01-29T00:10:19.116Z,100.00
2023-01-29T00:12:45.556Z,100.00
2023-01-29T00:15:12.193Z,100.00
2023-01-29T00:17:38.597Z,100.00
2023-01-29T00:20:05.597Z,100.00
2023-01-29T00:22:32.019Z,100.00
2023-01-29T00:24:58.581Z,100.00
2023-01-29T00:27:25.034Z,100.00
2023-01-29T00:30:09.536Z,100.00
2023-01-29T00:32:36.239Z,100.00
2023-01-29T00:35:03.139Z,100.00
2023-01-29T00:37:29.819Z,100.00
2023-01-29T00:39:56.819Z,100.00
2023-01-29T00:42:41.795Z,100.00
2023-01-29T00:45:08.684Z,100.00
2023-01-29T00:47:35.096Z,100.00
2023-01-29T00:50:03.559Z,100.00
2023-01-29T00:52:30.135Z,100.00
2023-01-29T00:54:58.802Z,100.00
2023-01-29T00:57:27.305Z,100.00
2023-01-29T00:59:53.913Z,100.00
2023-01-29T01:02:39.906Z,100.00
2023-01-29T01:05:10.171Z,100.00
2023-01-29T01:07:36.562Z,100.00
2023-01-29T01:10:21.159Z,100.00
2023-01-29T01:12:54.400Z,100.00
2023-01-29T01:15:21.895Z,100.00
2023-01-29T01:17:51.411Z,100.00
2023-01-29T01:20:18.097Z,100.00
2023-01-29T01:22:44.744Z,100.00
2023-01-29T01:25:11.205Z,100.00
2023-01-29T01:27:41.009Z,100.00
2023-01-29T01:30:10.431Z,100.00
2023-01-29T01:32:37.207Z,100.00
2023-01-29T01:35:03.832Z,100.00
2023-01-29T01:37:30.454Z,100.00
2023-01-29T01:39:58.616Z,100.00
2023-01-29T01:42:30.473Z,100.00
2023-01-29T01:44:59.281Z,100.00
2023-01-29T01:47:34.781Z,100.00
2023-01-29T01:50:12.538Z,100.00
2023-01-29T01:52:45.085Z,100.00
2023-01-29T01:55:14.823Z,100.00
2023-01-29T01:57:45.071Z,100.00
2023-01-29T02:00:15.754Z,100.00
2023-01-29T02:03:03.407Z,100.00
2023-01-29T02:05:51.197Z,100.00
2023-01-29T02:08:45.330Z,100.00
2023-01-29T02:11:11.940Z,100.00
2023-01-29T02:16:21.702Z,100.00
2023-01-29T02:18:49.056Z,100.00
2023-01-29T02:21:52.683Z,100.00
2023-01-29T02:24:44.272Z,100.00
2023-01-29T02:27:26.029Z,100.00
2023-01-29T02:30:07.572Z,100.00
2023-01-29T02:32:59.393Z,100.00
2023-01-29T02:35:46.611Z,100.00
2023-01-29T02:38:27.311Z,100.00
2023-01-29T02:41:00.489Z,100.00
2023-01-29T02:43:35.360Z,100.00
2023-01-29T02:46:16.054Z,100.00
2023-01-29T02:49:01.847Z,100.00
2023-01-29T02:51:41.820Z,100.00
2023-01-29T02:54:18.379Z,100.00
2023-01-29T02:56:48.892Z,100.00
2023-01-29T02:59:38.817Z,100.00
2023-01-29T03:02:11.415Z,100.00
2023-01-29T03:04:45.745Z,100.00
2023-01-29T03:07:43.996Z,100.00
2023-01-29T03:10:17.676Z,100.00
2023-01-29T03:12:47.961Z,100.00
2023-01-29T03:15:26.700Z,100.00
2023-01-29T03:18:00.150Z,100.00
2023-01-29T03:20:32.680Z,100.00
2023-01-29T03:23:05.778Z,100.00
2023-01-29T03:25:54.055Z,100.00
2023-01-29T03:28:41.975Z,100.00
2023-01-29T03:31:31.164Z,100.00
2023-01-29T03:34:08.332Z,100.00
2023-01-29T03:36:45.511Z,100.00
2023-01-29T03:39:14.066Z,100.00
2023-01-29T03:42:02.977Z,100.00
2023-01-29T03:44:47.009Z,100.00
2023-01-29T03:47:53.974Z,100.00
2023-01-29T03:50:33.433Z,100.00
2023-01-29T03:53:10.117Z,100.00
2023-01-29T03:55:43.671Z,100.00
2023-01-29T03:58:37.277Z,100.00
2023-01-29T04:01:29.728Z,100.00
2023-01-29T04:04:18.818Z,100.00
2023-01-29T04:06:49.536Z,100.00
2023-01-29T04:09:27.728Z,100.00
2023-01-29T04:12:02.151Z,100.00
2023-01-29T04:14:29.943Z,100.00
2023-01-29T04:17:00.715Z,100.00
2023-01-29T04:19:28.065Z,100.00
2023-01-29T04:22:05.908Z,100.00
2023-01-29T04:24:33.294Z,100.00
2023-01-29T04:27:14.633Z,100.00
2023-01-29T04:30:05.872Z,100.00
2023-01-29T04:32:48.029Z,100.00
2023-01-29T04:35:31.641Z,100.00
2023-01-29T04:38:06.399Z,100.00
2023-01-29T04:40:51.360Z,100.00
2023-01-29T04:43:44.321Z,100.00
2023-01-29T04:46:35.832Z,100.00
2023-01-29T04:49:34.374Z,100.00
2023-01-29T04:52:11.917Z,100.00
2023-01-29T04:54:41.120Z,100.00
2023-01-29T04:57:26.845Z,100.00
2023-01-29T05:00:08.974Z,100.00
2023-01-29T05:02:39.275Z,100.00
2023-01-29T05:05:08.217Z,100.00
2023-01-29T05:07:38.176Z,100.00
2023-01-29T05:10:08.440Z,100.00
2023-01-29T05:12:37.159Z,100.00
2023-01-29T05:15:09.031Z,100.00
2023-01-29T05:17:35.459Z,100.00
2023-01-29T05:20:01.997Z,100.00
2023-01-29T05:22:29.948Z,100.00
2023-01-29T05:24:56.352Z,100.00
2023-01-29T05:27:50.284Z,100.00
2023-01-29T05:30:17.209Z,100.00
2023-01-29T05:32:43.853Z,100.00
2023-01-29T05:35:10.295Z,100.00
2023-01-29T05:37:36.837Z,100.00
2023-01-29T05:40:03.456Z,100.00
2023-01-29T05:42:29.944Z,100.00
2023-01-29T05:44:56.375Z,100.00
2023-01-29T05:47:22.975Z,100.00
2023-01-29T05:49:49.403Z,100.00
2023-01-29T05:52:15.799Z,100.00
2023-01-29T05:54:42.279Z,100.00
2023-01-29T05:57:08.716Z,100.00
2023-01-29T05:59:35.217Z,100.00
2023-01-29T06:02:01.622Z,100.00
2023-01-29T06:04:28.127Z,100.00
2023-01-29T06:06:54.499Z,100.00
2023-01-29T06:09:20.906Z,100.00
2023-01-29T06:11:47.336Z,100.00
2023-01-29T06:14:13.692Z,100.00
2023-01-29T06:16:40.094Z,100.00
2023-01-29T06:19:06.496Z,100.00
2023-01-29T06:21:32.940Z,100.00
2023-01-29T06:23:59.400Z,100.00
2023-01-29T06:26:25.913Z,100.00
2023-01-29T06:28:52.384Z,100.00
2023-01-29T06:31:37.744Z,100.00
2023-01-29T06:34:04.814Z,100.00
2023-01-29T06:36:31.346Z,100.00
2023-01-29T06:38:57.755Z,100.00
2023-01-29T06:41:25.509Z,100.00
2023-01-29T06:43:52.571Z,100.00
2023-01-29T06:46:19.022Z,100.00
2023-01-29T06:48:45.524Z,100.00
2023-01-29T06:51:12.125Z,100.00
2023-01-29T06:53:39.253Z,100.00
2023-01-29T06:56:06.673Z,100.00
2023-01-29T06:58:37.512Z,100.00
2023-01-29T07:01:09.189Z,100.00
2023-01-29T07:03:36.023Z,100.00
2023-01-29T07:06:02.591Z,100.00
2023-01-29T07:08:29.046Z,100.00
2023-01-29T07:11:01.649Z,100.00
2023-01-29T07:13:28.345Z,100.00
2023-01-29T07:15:58.441Z,100.00
2023-01-29T07:18:24.960Z,100.00
2023-01-29T07:20:51.356Z,100.00
2023-01-29T07:23:18.061Z,100.00
2023-01-29T07:25:44.697Z,100.00
2023-01-29T07:28:11.104Z,100.00
2023-01-29T07:30:37.595Z,100.00
2023-01-29T07:33:08.800Z,100.00
2023-01-29T07:35:43.023Z,100.00
2023-01-29T07:38:10.850Z,100.00
2023-01-29T07:40:37.508Z,100.00
2023-01-29T07:43:06.321Z,100.00
2023-01-29T07:45:35.739Z,100.00
2023-01-29T07:48:04.808Z,100.00
2023-01-29T07:50:32.671Z,100.00
2023-01-29T07:52:59.113Z,100.00
2023-01-29T07:55:26.079Z,100.00
2023-01-29T07:58:00.788Z,100.00
2023-01-29T08:00:27.832Z,100.00
2023-01-29T08:02:54.343Z,100.00
2023-01-29T08:05:20.844Z,100.00
2023-01-29T08:08:05.756Z,100.00
2023-01-29T08:10:35.652Z,100.00
2023-01-29T08:13:03.346Z,100.00
2023-01-29T08:15:30.014Z,100.00
2023-01-29T08:17:58.411Z,100.00
2023-01-29T08:20:25.595Z,100.00
2023-01-29T08:23:01.424Z,100.00
2023-01-29T08:25:29.171Z,100.00
2023-01-29T08:27:59.945Z,100.00
2023-01-29T08:30:29.537Z,100.00
2023-01-29T08:32:55.938Z,100.00
2023-01-29T08:35:22.467Z,100.00
2023-01-29T08:37:55.476Z,100.00
2023-01-29T08:40:22.673Z,100.00
2023-01-29T08:42:49.253Z,100.00
2023-01-29T08:45:15.816Z,100.00
2023-01-29T08:47:47.025Z,100.00
2023-01-29T08:50:13.865Z,100.00
2023-01-29T08:52:40.612Z,100.00
2023-01-29T08:55:07.394Z,100.00
2023-01-29T08:57:33.796Z,100.00
2023-01-29T09:00:00.224Z,100.00
2023-01-29T09:02:26.684Z,100.00
2023-01-29T09:04:53.102Z,100.00
2023-01-29T09:07:21.706Z,100.00
2023-01-29T09:09:48.150Z,100.00
2023-01-29T09:12:14.616Z,100.00
2023-01-29T09:14:41.057Z,100.00
2023-01-29T09:17:07.432Z,100.00
2023-01-29T09:19:33.893Z,100.00
2023-01-29T09:22:00.324Z,100.00
2023-01-29T09:24:26.729Z,100.00
2023-01-29T09:26:53.098Z,100.00
2023-01-29T09:29:19.495Z,100.00
2023-01-29T09:31:45.993Z,100.00
2023-01-29T09:34:12.551Z,100.00
2023-01-29T09:36:38.948Z,100.00
2023-01-29T09:39:05.355Z,100.00
2023-01-29T09:41:53.089Z,100.00
2023-01-29T09:44:55.160Z,100.00
2023-01-29T09:47:25.719Z,100.00
2023-01-29T09:50:20.141Z,100.00
2023-01-29T09:52:54.498Z,100.00
2023-01-29T09:55:23.565Z,100.00
2023-01-29T09:58:06.007Z,100.00
2023-01-29T10:00:44.399Z,100.00
2023-01-29T10:03:40.240Z,100.00
2023-01-29T10:06:41.325Z,100.00
2023-01-29T10:09:45.956Z,100.00
2023-01-29T10:12:41.860Z,100.00
2023-01-29T10:15:26.514Z,100.00
2023-01-29T10:18:31.537Z,100.00
2023-01-29T10:21:00.919Z,100.00
2023-01-29T10:23:33.349Z,100.00
2023-01-29T10:26:00.886Z,100.00
2023-01-29T10:28:33.978Z,100.00
2023-01-29T10:31:38.557Z,100.00
2023-01-29T10:34:24.865Z,100.00
2023-01-29T10:36:51.259Z,100.00
2023-01-29T10:39:20.485Z,100.00
2023-01-29T10:42:09.602Z,100.00
2023-01-29T10:45:01.069Z,100.00
2023-01-29T10:47:55.305Z,100.00
2023-01-29T10:50:39.348Z,100.00
2023-01-29T10:53:36.688Z,100.00
2023-01-29T10:56:23.362Z,100.00
2023-01-29T10:59:19.116Z,100.00
2023-01-29T11:01:45.550Z,100.00
2023-01-29T11:04:13.836Z,100.00
2023-01-29T11:06:40.327Z,100.00
2023-01-29T11:12:12.480Z,100.00
2023-01-29T11:14:59.085Z,100.00
2023-01-29T11:17:26.339Z,100.00
2023-01-29T11:19:57.551Z,100.00
2023-01-29T11:22:29.681Z,94.97
2023-01-29T11:25:19.377Z,77.27
2023-01-29T11:27:49.381Z,89.52
2023-01-29T11:30:38.348Z,76.51
2023-01-29T11:33:21.971Z,82.07
2023-01-29T11:35:48.436Z,83.12
2023-01-29T11:38:26.296Z,72.30
2023-01-29T11:40:53.098Z,79.78
2023-01-29T11:43:31.059Z,69.26
2023-01-29T11:45:59.205Z,76.46
2023-01-29T11:48:33.482Z,65.04
2023-01-29T11:51:01.251Z,72.44
2023-01-29T11:53:38.587Z,73.69
2023-01-29T11:56:39.913Z,65.68
2023-01-29T11:59:13.671Z,73.27
2023-01-29T12:01:41.574Z,68.17
2023-01-29T12:04:20.693Z,65.63
2023-01-29T12:06:51.940Z,70.98
2023-01-29T12:09:21.899Z,68.18
2023-01-29T12:11:48.444Z,70.11
2023-01-29T12:14:29.117Z,64.28
2023-01-29T12:17:17.908Z,62.01
2023-01-29T12:19:50.912Z,64.13
2023-01-29T12:22:21.190Z,65.53
2023-01-29T12:24:58.984Z,60.69
2023-01-29T12:27:34.110Z,61.11
2023-01-29T12:30:40.323Z,59.04
2023-01-29T12:33:43.488Z,56.78
2023-01-29T12:36:19.360Z,58.16
2023-01-29T12:38:45.951Z,59.33
2023-01-29T12:41:30.549Z,54.05
2023-01-29T12:44:19.459Z,57.17
2023-01-29T12:46:54.802Z,53.26
2023-01-29T12:49:29.288Z,54.17
2023-01-29T12:52:11.186Z,52.86
2023-01-29T12:54:43.145Z,55.02
2023-01-29T12:57:51.509Z,51.99
2023-01-29T13:00:28.275Z,51.42
2023-01-29T13:03:06.725Z,52.85
2023-01-29T13:05:41.301Z,52.33
2023-01-29T13:08:16.280Z,53.03
2023-01-29T13:10:47.845Z,52.67
2023-01-29T13:13:18.361Z,52.65
2023-01-29T13:15:45.286Z,53.04
2023-01-29T13:18:33.296Z,49.26
2023-01-29T13:21:00.950Z,52.34
2023-01-29T13:23:39.364Z,50.23
2023-01-29T13:26:06.325Z,52.76
2023-01-29T13:28:32.903Z,52.94
2023-01-29T13:31:50.207Z,48.46
2023-01-29T13:34:23.149Z,50.63
2023-01-29T13:36:55.897Z,50.37
2023-01-29T13:39:33.152Z,48.49
2023-01-29T13:42:02.795Z,51.82
2023-01-29T13:44:40.673Z,49.08
2023-01-29T13:47:11.456Z,50.80
2023-01-29T13:49:42.510Z,50.46
2023-01-29T13:52:29.098Z,47.16
2023-01-29T13:55:04.076Z,48.92
2023-01-29T13:57:44.200Z,48.22
2023-01-29T14:00:24.268Z,48.19
2023-01-29T14:03:11.279Z,47.84
2023-01-29T14:05:56.669Z,49.22
2023-01-29T14:08:35.288Z,48.20
2023-01-29T14:11:16.965Z,49.03
2023-01-29T14:13:45.901Z,51.78
2023-01-29T14:16:12.336Z,52.39
2023-01-29T14:18:47.676Z,52.41
2023-01-29T14:21:13.971Z,53.52
2023-01-29T14:23:50.699Z,53.68
2023-01-29T14:26:33.216Z,53.71
2023-01-29T14:29:02.560Z,54.19
2023-01-29T14:31:30.304Z,54.88
2023-01-29T14:34:03.372Z,55.17
2023-01-29T14:36:38.757Z,55.91
2023-01-29T14:39:05.475Z,56.58
2023-01-29T14:41:34.333Z,57.15
2023-01-29T14:44:38.134Z,58.15
2023-01-29T14:47:04.891Z,60.01
2023-01-29T14:49:49.515Z,62.42
2023-01-29T14:52:17.094Z,62.00
2023-01-29T14:54:45.556Z,62.15
2023-01-29T14:57:17.024Z,62.92
2023-01-29T14:59:54.038Z,64.43
2023-01-29T15:02:26.900Z,63.94
2023-01-29T15:04:59.750Z,63.25
2023-01-29T15:07:38.961Z,63.05
2023-01-29T15:10:22.237Z,63.58
2023-01-29T15:13:17.307Z,63.69
2023-01-29T15:15:52.653Z,62.49
2023-01-29T15:18:30.957Z,62.65
2023-01-29T15:21:15.042Z,63.41
2023-01-29T15:23:41.846Z,62.91
2023-01-29T15:26:11.751Z,62.61
2023-01-29T15:28:39.770Z,62.93
2023-01-29T15:31:13.218Z,63.10
2023-01-29T15:33:44.435Z,63.39
2023-01-29T15:36:20.876Z,62.17
2023-01-29T15:38:47.328Z,64.30
2023-01-29T15:41:23.602Z,64.14
2023-01-29T15:43:56.585Z,66.04
2023-01-29T15:46:29.314Z,66.41
2023-01-29T15:48:59.317Z,67.63
2023-01-29T15:51:27.954Z,69.07
2023-01-29T15:53:58.299Z,72.43
2023-01-29T15:56:46.569Z,74.36
2023-01-29T15:59:19.796Z,73.77
2023-01-29T16:01:46.431Z,73.30
2023-01-29T16:04:18.043Z,75.06
2023-01-29T16:06:45.711Z,74.74
2023-01-29T16:09:19.192Z,76.32
2023-01-29T16:11:47.026Z,76.45
2023-01-29T16:14:16.314Z,77.89
2023-01-29T16:16:45.635Z,77.84
2023-01-29T16:19:28.260Z,82.19
2023-01-29T16:21:59.579Z,79.17
2023-01-29T16:24:27.142Z,79.54
2023-01-29T16:26:59.789Z,80.47
2023-01-29T16:29:32.161Z,79.89
2023-01-29T16:32:03.156Z,80.11
2023-01-29T16:34:37.668Z,82.76
2023-01-29T16:37:16.003Z,83.36
2023-01-29T16:39:47.074Z,83.49
2023-01-29T16:42:17.135Z,83.13
2023-01-29T16:45:00.014Z,85.75
2023-01-29T16:47:41.468Z,86.44
2023-01-29T16:50:36.038Z,88.16
2023-01-29T16:53:02.887Z,90.04
2023-01-29T16:55:38.734Z,94.56
2023-01-29T16:58:17.996Z,97.88
2023-01-29T17:00:49.069Z,94.75
2023-01-29T17:03:17.075Z,92.96
2023-01-29T17:05:44.365Z,93.14
2023-01-29T17:08:26.908Z,93.75
2023-01-29T17:10:53.591Z,93.68
2023-01-29T17:13:29.815Z,93.70
2023-01-29T17:16:02.839Z,94.87
2023-01-29T17:18:29.822Z,95.22
2023-01-29T17:20:56.180Z,95.90
2023-01-29T17:23:22.868Z,94.12
2023-01-29T17:25:49.601Z,94.89
2023-01-29T17:28:17.537Z,96.25
2023-01-29T17:30:50.584Z,95.94
2023-01-29T17:33:25.810Z,95.23
2023-01-29T17:35:52.807Z,95.72
2023-01-29T17:38:25.900Z,96.76
2023-01-29T17:40:59.960Z,97.30
2023-01-29T17:43:26.530Z,97.01
2023-01-29T17:45:53.395Z,97.37
2023-01-29T17:48:22.399Z,98.76
2023-01-29T17:50:52.899Z,98.46
2023-01-29T17:53:20.399Z,100.00
2023-01-29T17:55:47.122Z,99.94
2023-01-29T17:58:25.407Z,99.92
2023-01-29T18:00:52.897Z,98.72
2023-01-29T18:03:19.638Z,98.85
2023-01-29T18:05:48.552Z,98.68
2023-01-29T18:08:20.989Z,98.13
2023-01-29T18:10:47.561Z,97.96
2023-01-29T18:13:14.275Z,98.52
2023-01-29T18:15:40.843Z,99.02
2023-01-29T18:18:13.115Z,99.14
2023-01-29T18:20:40.333Z,98.84
2023-01-29T18:23:08.008Z,99.63
2023-01-29T18:25:35.037Z,99.62
2023-01-29T18:28:01.685Z,100.00
2023-01-29T18:30:28.345Z,100.00
2023-01-29T18:32:54.776Z,100.00
2023-01-29T18:35:21.248Z,100.00
2023-01-29T18:37:47.891Z,100.00
2023-01-29T18:40:17.076Z,99.68
2023-01-29T18:42:44.619Z,98.91
2023-01-29T18:45:12.451Z,99.20
2023-01-29T18:47:39.561Z,98.92
2023-01-29T18:50:07.481Z,98.52
2023-01-29T18:52:34.753Z,98.89
2023-01-29T18:55:01.309Z,98.56
2023-01-29T18:58:26.146Z,98.28
2023-01-29T19:00:14.880Z,98.61
2023-01-29T19:02:42.882Z,98.62
2023-01-29T19:05:09.532Z,98.29
2023-01-29T19:07:36.823Z,98.73
2023-01-29T19:10:06.706Z,98.66
2023-01-29T19:12:34.300Z,98.78
2023-01-29T19:15:01.081Z,99.37
2023-01-29T19:17:27.558Z,99.76
2023-01-29T19:19:56.493Z,99.74
2023-01-29T19:22:23.059Z,100.00
2023-01-29T19:24:49.499Z,100.00
2023-01-29T19:27:15.847Z,100.00
2023-01-29T19:29:42.316Z,100.00
2023-01-29T19:32:08.924Z,100.00
2023-01-29T19:34:35.348Z,100.00
2023-01-29T19:37:01.866Z,100.00
2023-01-29T19:39:32.443Z,100.00
2023-01-29T19:41:59.253Z,100.00
2023-01-29T19:44:25.704Z,100.00
2023-01-29T19:46:53.047Z,100.00
2023-01-29T19:49:19.505Z,100.00
2023-01-29T19:51:46.015Z,100.00
2023-01-29T19:54:12.646Z,100.00
2023-01-29T19:56:39.087Z,100.00
2023-01-29T19:59:07.277Z,100.00
2023-01-29T20:01:33.964Z,100.00
2023-01-29T20:04:00.554Z,100.00
2023-01-29T20:06:28.515Z,100.00
2023-01-29T20:08:55.021Z,100.00
2023-01-29T20:11:23.542Z,100.00
2023-01-29T20:13:52.112Z,100.00
2023-01-29T20:16:19.309Z,100.00
2023-01-29T20:18:46.182Z,100.00
2023-01-29T20:21:15.490Z,100.00
2023-01-29T20:23:43.744Z,100.00
2023-01-29T20:26:14.783Z,100.00
2023-01-29T20:28:41.577Z,100.00
2023-01-29T20:31:09.199Z,100.00
2023-01-29T20:33:39.065Z,100.00
2023-01-29T20:36:08.481Z,100.00
2023-01-29T20:38:34.964Z,100.00
2023-01-29T20:41:12.130Z,100.00
2023-01-29T20:43:38.611Z,100.00
2023-01-29T20:46:05.542Z,100.00
2023-01-29T20:48:33.022Z,100.00
2023-01-29T20:51:15.427Z,100.00
2023-01-29T20:53:46.059Z,100.00
2023-01-29T20:56:14.590Z,100.00
2023-01-29T20:58:41.502Z,100.00
2023-01-29T21:01:10.129Z,100.00
2023-01-29T21:03:36.913Z,100.00
2023-01-29T21:06:03.425Z,100.00
2023-01-29T21:08:29.972Z,100.00
2023-01-29T21:10:56.467Z,100.00
2023-01-29T21:13:22.999Z,100.00
2023-01-29T21:15:50.559Z,100.00
2023-01-29T21:18:17.165Z,100.00
2023-01-29T21:20:43.698Z,100.00
2023-01-29T21:23:10.592Z,100.00
2023-01-29T21:25:38.597Z,100.00
2023-01-29T21:28:05.766Z,100.00
2023-01-29T21:30:32.496Z,100.00
2023-01-29T21:32:58.955Z,100.00
2023-01-29T21:35:25.435Z,100.00
2023-01-29T21:37:51.837Z,100.00
2023-01-29T21:40:18.694Z,100.00
2023-01-29T21:43:03.996Z,100.00
2023-01-29T21:45:30.448Z,100.00
2023-01-29T21:47:56.906Z,100.00
2023-01-29T21:50:23.376Z,100.00
2023-01-29T21:52:49.787Z,100.00
2023-01-29T21:55:16.314Z,100.00
2023-01-29T21:57:42.976Z,100.00
2023-01-29T22:00:12.091Z,100.00
2023-01-29T22:02:38.705Z,100.00
2023-01-29T22:05:20.225Z,100.00
2023-01-29T22:07:47.801Z,100.00
2023-01-29T22:10:14.969Z,100.00
2023-01-29T22:12:41.730Z,100.00
2023-01-29T22:15:09.319Z,100.00
2023-01-29T22:17:35.790Z,100.00
2023-01-29T22:20:02.391Z,100.00
2023-01-29T22:22:28.843Z,100.00
2023-01-29T22:24:56.408Z,100.00
2023-01-29T22:27:22.840Z,100.00
2023-01-29T22:29:49.197Z,100.00
2023-01-29T22:32:16.183Z,100.00
2023-01-29T22:34:42.608Z,100.00
2023-01-29T22:37:08.985Z,100.00
2023-01-29T22:39:35.450Z,100.00
2023-01-29T22:42:01.953Z,100.00
2023-01-29T22:44:28.332Z,100.00
2023-01-29T22:46:54.796Z,100.00
2023-01-29T22:49:21.235Z,100.00
2023-01-29T22:51:48.122Z,100.00
2023-01-29T22:54:15.486Z,100.00
2023-01-29T22:56:41.879Z,100.00
2023-01-29T22:59:09.932Z,100.00
2023-01-29T23:01:36.365Z,100.00
2023-01-29T23:04:02.760Z,100.00
2023-01-29T23:06:29.192Z,100.00
2023-01-29T23:08:55.650Z,100.00
2023-01-29T23:11:23.565Z,100.00
2023-01-29T23:13:52.748Z,100.00
2023-01-29T23:16:21.004Z,100.00
2023-01-29T23:18:50.969Z,100.00
2023-01-29T23:21:18.381Z,100.00
2023-01-29T23:23:45.439Z,100.00
2023-01-29T23:26:31.634Z,100.00
2023-01-29T23:28:59.723Z,100.00
2023-01-29T23:31:26.494Z,100.00
2023-01-29T23:33:52.917Z,100.00
2023-01-29T23:36:19.335Z,100.00
2023-01-29T23:38:46.026Z,100.00
2023-01-29T23:41:12.433Z,100.00
2023-01-29T23:43:38.818Z,100.00
2023-01-29T23:46:05.404Z,100.00
2023-01-29T23:48:31.918Z,100.00
2023-01-29T23:50:58.274Z,100.00
2023-01-29T23:53:24.739Z,100.00
2023-01-29T23:55:58.842Z,100.00
2023-01-29T23:58:25.926Z,100.00
